createdAt,value
2023-11-19T00:00:32.569Z,0.00
2023-11-19T00:01:32.611Z,0.00
2023-11-19T00:02:32.624Z,0.00
2023-11-19T00:03:32.550Z,0.00
2023-11-19T00:04:32.558Z,0.00
2023-11-19T00:05:32.504Z,0.00
2023-11-19T00:06:32.497Z,0.00
2023-11-19T00:07:35.528Z,0.00
2023-11-19T00:08:32.491Z,0.00
2023-11-19T00:09:32.481Z,0.00
2023-11-19T00:10:32.582Z,0.00
2023-11-19T00:11:32.684Z,0.00
2023-11-19T00:12:32.452Z,0.00
2023-11-19T00:13:32.412Z,0.00
2023-11-19T00:14:32.409Z,0.00
2023-11-19T00:15:32.663Z,0.00
2023-11-19T00:16:32.402Z,0.00
2023-11-19T00:17:32.568Z,0.00
2023-11-19T00:18:32.399Z,0.00
2023-11-19T00:19:32.672Z,0.00
2023-11-19T00:20:32.697Z,0.00
2023-11-19T00:21:32.640Z,0.00
2023-11-19T00:22:32.353Z,0.00
2023-11-19T00:23:32.312Z,0.00
2023-11-19T00:24:32.392Z,0.00
2023-11-19T00:25:32.340Z,0.00
2023-11-19T00:26:32.306Z,0.00
2023-11-19T00:27:32.272Z,0.00
2023-11-19T00:28:32.313Z,0.00
2023-11-19T00:29:32.278Z,0.00
2023-11-19T00:30:32.251Z,0.00
2023-11-19T00:31:32.351Z,0.00
2023-11-19T00:32:32.237Z,0.00
2023-11-19T00:33:32.268Z,0.00
2023-11-19T00:34:32.230Z,0.00
2023-11-19T00:35:32.210Z,0.00
2023-11-19T00:36:32.206Z,0.00
2023-11-19T00:37:32.166Z,0.00
2023-11-19T00:38:32.159Z,0.00
2023-11-19T00:39:32.151Z,0.00
2023-11-19T00:40:32.238Z,0.00
2023-11-19T00:41:32.144Z,0.00
2023-11-19T00:42:32.128Z,0.00
2023-11-19T00:43:32.132Z,0.00
2023-11-19T00:44:32.101Z,0.00
2023-11-19T00:45:32.117Z,0.00
2023-11-19T00:46:32.120Z,0.00
2023-11-19T00:47:32.084Z,0.00
2023-11-19T00:48:32.061Z,0.00
2023-11-19T00:49:32.116Z,0.00
2023-11-19T00:50:33.804Z,0.00
2023-11-19T00:51:32.021Z,0.00
2023-11-19T00:52:32.048Z,0.00
2023-11-19T00:53:32.006Z,0.00
2023-11-19T00:54:32.021Z,0.00
2023-11-19T00:55:32.046Z,0.00
2023-11-19T00:56:31.976Z,0.00
2023-11-19T00:57:31.968Z,0.00
2023-11-19T00:58:31.985Z,0.00
2023-11-19T00:59:32.455Z,0.00
2023-11-19T01:00:31.942Z,0.00
2023-11-19T01:01:31.972Z,0.00
2023-11-19T01:02:31.964Z,0.00
2023-11-19T01:03:31.968Z,0.00
2023-11-19T01:04:31.965Z,0.00
2023-11-19T01:05:31.878Z,0.00
2023-11-19T01:06:31.867Z,0.00
2023-11-19T01:07:31.933Z,0.00
2023-11-19T01:08:31.873Z,0.00
2023-11-19T01:09:31.828Z,0.00
2023-11-19T01:10:31.858Z,0.00
2023-11-19T01:11:31.806Z,0.00
2023-11-19T01:12:31.805Z,0.00
2023-11-19T01:13:31.874Z,0.00
2023-11-19T01:14:31.809Z,0.00
2023-11-19T01:15:31.787Z,0.00
2023-11-19T01:16:31.858Z,0.00
2023-11-19T01:17:31.847Z,0.00
2023-11-19T01:18:31.752Z,0.00
2023-11-19T01:19:31.758Z,0.00
2023-11-19T01:20:31.739Z,0.00
2023-11-19T01:21:31.702Z,0.00
2023-11-19T01:22:31.764Z,0.00
2023-11-19T01:23:31.689Z,0.00
2023-11-19T01:24:31.679Z,0.00
2023-11-19T01:25:31.700Z,0.00
2023-11-19T01:26:31.690Z,0.00
2023-11-19T01:27:31.676Z,0.00
2023-11-19T01:28:31.687Z,0.00
2023-11-19T01:29:31.640Z,0.00
2023-11-19T01:30:31.621Z,0.00
2023-11-19T01:31:31.654Z,0.00
2023-11-19T01:32:31.643Z,0.00
2023-11-19T01:33:31.609Z,0.00
2023-11-19T01:34:31.671Z,0.00
2023-11-19T01:35:31.564Z,0.00
2023-11-19T01:36:31.574Z,0.00
2023-11-19T01:37:31.565Z,0.00
2023-11-19T01:38:31.528Z,0.00
2023-11-19T01:39:31.517Z,0.00
2023-11-19T01:40:31.544Z,0.00
2023-11-19T01:41:31.523Z,0.00
2023-11-19T01:42:31.492Z,0.00
2023-11-19T01:43:31.498Z,0.00
2023-11-19T01:44:31.486Z,0.00
2023-11-19T01:45:31.493Z,0.00
2023-11-19T01:46:31.567Z,0.00
2023-11-19T01:47:31.471Z,0.00
2023-11-19T01:48:31.424Z,0.00
2023-11-19T01:49:31.443Z,0.00
2023-11-19T01:50:31.444Z,0.00
2023-11-19T01:51:31.389Z,0.00
2023-11-19T01:52:31.441Z,0.00
2023-11-19T01:53:31.389Z,0.00
2023-11-19T01:54:31.375Z,0.00
2023-11-19T01:55:31.394Z,0.00
2023-11-19T01:56:31.341Z,0.00
2023-11-19T01:57:31.332Z,0.00
2023-11-19T01:58:31.384Z,0.00
2023-11-19T01:59:31.339Z,0.00
2023-11-19T02:00:31.333Z,0.00
2023-11-19T02:01:31.332Z,0.00
2023-11-19T02:02:31.445Z,0.00
2023-11-19T02:03:31.371Z,0.00
2023-11-19T02:04:31.339Z,0.00
2023-11-19T02:05:31.238Z,0.00
2023-11-19T02:06:31.270Z,0.00
2023-11-19T02:07:31.223Z,0.00
2023-11-19T02:08:31.250Z,0.00
2023-11-19T02:09:31.232Z,0.00
2023-11-19T02:10:31.213Z,0.00
2023-11-19T02:11:31.186Z,0.00
2023-11-19T02:12:31.175Z,0.00
2023-11-19T02:13:31.201Z,0.00
2023-11-19T02:14:31.171Z,0.00
2023-11-19T02:15:31.139Z,0.00
2023-11-19T02:16:31.189Z,0.00
2023-11-19T02:17:31.142Z,0.00
2023-11-19T02:18:31.146Z,0.00
2023-11-19T02:19:31.124Z,0.00
2023-11-19T02:20:31.089Z,0.00
2023-11-19T02:21:31.090Z,0.00
2023-11-19T02:22:31.141Z,0.00
2023-11-19T02:23:31.083Z,0.00
2023-11-19T02:24:31.042Z,0.00
2023-11-19T02:25:31.086Z,0.00
2023-11-19T02:26:31.024Z,0.00
2023-11-19T02:27:31.041Z,0.00
2023-11-19T02:28:31.066Z,0.00
2023-11-19T02:29:31.002Z,0.00
2023-11-19T02:30:30.982Z,0.00
2023-11-19T02:31:31.038Z,0.00
2023-11-19T02:32:31.011Z,0.00
2023-11-19T02:33:30.958Z,0.00
2023-11-19T02:34:31.013Z,0.00
2023-11-19T02:35:30.946Z,0.00
2023-11-19T02:36:30.939Z,0.00
2023-11-19T02:37:30.947Z,0.00
2023-11-19T02:38:30.900Z,0.00
2023-11-19T02:39:30.899Z,0.00
2023-11-19T02:40:30.899Z,0.00
2023-11-19T02:41:30.893Z,0.00
2023-11-19T02:42:30.868Z,0.00
2023-11-19T02:43:30.854Z,0.00
2023-11-19T02:44:30.833Z,0.00
2023-11-19T02:45:30.849Z,0.00
2023-11-19T02:46:30.872Z,0.00
2023-11-19T02:47:30.829Z,0.00
2023-11-19T02:48:30.795Z,0.00
2023-11-19T02:49:30.821Z,0.00
2023-11-19T02:50:30.795Z,0.00
2023-11-19T02:51:30.816Z,0.00
2023-11-19T02:52:30.776Z,0.00
2023-11-19T02:53:30.740Z,0.00
2023-11-19T02:54:30.735Z,0.00
2023-11-19T02:55:30.786Z,0.00
2023-11-19T02:56:30.718Z,0.00
2023-11-19T02:57:30.698Z,0.00
2023-11-19T02:58:30.721Z,0.00
2023-11-19T02:59:30.677Z,0.00
2023-11-19T03:00:30.678Z,0.00
2023-11-19T03:01:31.859Z,0.00
2023-11-19T03:02:30.729Z,0.00
2023-11-19T03:03:30.754Z,0.00
2023-11-19T03:04:30.661Z,0.00
2023-11-19T03:05:30.633Z,0.00
2023-11-19T03:06:30.610Z,0.00
2023-11-19T03:07:30.635Z,0.00
2023-11-19T03:08:30.666Z,0.00
2023-11-19T03:09:30.583Z,0.00
2023-11-19T03:10:30.652Z,0.00
2023-11-19T03:11:30.552Z,0.00
2023-11-19T03:12:30.578Z,0.00
2023-11-19T03:13:30.556Z,0.00
2023-11-19T03:14:30.527Z,0.00
2023-11-19T03:15:30.511Z,0.00
2023-11-19T03:16:30.572Z,0.00
2023-11-19T03:17:30.518Z,0.00
2023-11-19T03:18:30.491Z,0.00
2023-11-19T03:19:30.528Z,0.00
2023-11-19T03:20:30.462Z,0.00
2023-11-19T03:21:30.481Z,0.00
2023-11-19T03:22:30.448Z,0.00
2023-11-19T03:23:30.447Z,0.00
2023-11-19T03:24:30.410Z,0.00
2023-11-19T03:25:30.429Z,0.00
2023-11-19T03:26:30.398Z,0.00
2023-11-19T03:27:30.377Z,0.00
2023-11-19T03:28:30.395Z,0.00
2023-11-19T03:29:30.365Z,0.00
2023-11-19T03:31:30.376Z,0.00
2023-11-19T03:32:30.371Z,0.00
2023-11-19T03:33:30.381Z,0.00
2023-11-19T03:34:30.320Z,0.00
2023-11-19T03:35:30.295Z,0.00
2023-11-19T03:36:30.282Z,0.00
2023-11-19T03:37:30.308Z,0.00
2023-11-19T03:38:30.259Z,0.00
2023-11-19T03:39:30.254Z,0.00
2023-11-19T03:40:30.310Z,0.00
2023-11-19T03:41:41.677Z,0.00
2023-11-19T03:42:30.245Z,0.00
2023-11-19T03:43:30.230Z,0.00
2023-11-19T03:44:30.193Z,0.00
2023-11-19T03:45:30.197Z,0.00
2023-11-19T03:46:30.255Z,0.00
2023-11-19T03:47:30.220Z,0.00
2023-11-19T03:48:30.155Z,0.00
2023-11-19T03:49:30.162Z,0.00
2023-11-19T03:50:30.129Z,0.00
2023-11-19T03:51:30.147Z,0.00
2023-11-19T03:52:30.150Z,0.00
2023-11-19T03:53:30.105Z,0.00
2023-11-19T03:54:30.090Z,0.00
2023-11-19T03:55:30.145Z,0.00
2023-11-19T03:56:30.101Z,0.00
2023-11-19T03:57:30.067Z,0.00
2023-11-19T03:58:30.054Z,0.00
2023-11-19T03:59:30.046Z,0.00
2023-11-19T04:00:30.056Z,0.00
2023-11-19T04:01:30.069Z,0.00
2023-11-19T04:02:30.057Z,0.00
2023-11-19T04:03:30.029Z,0.00
2023-11-19T04:04:30.002Z,0.00
2023-11-19T04:05:30.017Z,0.00
2023-11-19T04:06:29.968Z,0.00
2023-11-19T04:07:29.979Z,0.00
2023-11-19T04:08:29.947Z,0.00
2023-11-19T04:09:29.938Z,0.00
2023-11-19T04:10:29.963Z,0.00
2023-11-19T04:11:29.916Z,0.00
2023-11-19T04:12:29.912Z,0.00
2023-11-19T04:13:29.942Z,0.00
2023-11-19T04:14:29.905Z,0.00
2023-11-19T04:15:29.898Z,0.00
2023-11-19T04:16:29.908Z,0.00
2023-11-19T04:17:30.074Z,0.00
2023-11-19T04:18:29.847Z,0.00
2023-11-19T04:19:29.891Z,0.00
2023-11-19T04:20:29.821Z,0.00
2023-11-19T04:21:29.811Z,0.00
2023-11-19T04:22:29.849Z,0.00
2023-11-19T04:23:29.793Z,0.00
2023-11-19T04:24:29.798Z,0.00
2023-11-19T04:25:29.808Z,0.00
2023-11-19T04:26:29.760Z,0.00
2023-11-19T04:27:29.751Z,0.00
2023-11-19T04:28:29.780Z,0.00
2023-11-19T04:29:29.744Z,0.00
2023-11-19T04:30:29.717Z,0.00
2023-11-19T04:31:29.766Z,0.00
2023-11-19T04:32:29.726Z,0.00
2023-11-19T04:33:29.700Z,0.00
2023-11-19T04:34:29.713Z,0.00
2023-11-19T04:35:29.678Z,0.00
2023-11-19T04:36:29.651Z,0.00
2023-11-19T04:37:29.684Z,0.00
2023-11-19T04:38:29.649Z,0.00
2023-11-19T04:39:29.620Z,0.00
2023-11-19T04:40:29.674Z,0.00
2023-11-19T04:41:29.602Z,0.00
2023-11-19T04:42:29.598Z,0.00
2023-11-19T04:43:29.632Z,0.00
2023-11-19T04:44:29.576Z,0.00
2023-11-19T04:45:29.583Z,0.00
2023-11-19T04:46:29.600Z,0.00
2023-11-19T04:47:29.609Z,0.00
2023-11-19T04:48:41.910Z,0.00
2023-11-19T04:49:29.600Z,0.00
2023-11-19T04:50:29.498Z,0.00
2023-11-19T04:51:29.502Z,0.00
2023-11-19T04:52:29.535Z,0.00
2023-11-19T04:53:29.496Z,0.00
2023-11-19T04:54:29.463Z,0.00
2023-11-19T04:55:29.502Z,0.00
2023-11-19T04:56:29.462Z,0.00
2023-11-19T04:57:29.453Z,0.00
2023-11-19T04:58:29.445Z,0.00
2023-11-19T04:59:29.419Z,0.00
2023-11-19T05:00:29.400Z,0.00
2023-11-19T05:01:29.478Z,0.00
2023-11-19T05:02:29.375Z,0.00
2023-11-19T05:03:29.476Z,0.00
2023-11-19T05:04:29.491Z,0.00
2023-11-19T05:05:29.404Z,0.00
2023-11-19T05:06:29.353Z,0.00
2023-11-19T05:07:29.362Z,0.00
2023-11-19T05:08:29.313Z,0.00
2023-11-19T05:09:29.310Z,0.00
2023-11-19T05:10:29.314Z,0.00
2023-11-19T05:11:29.317Z,0.00
2023-11-19T05:12:29.273Z,0.00
2023-11-19T05:13:29.325Z,0.00
2023-11-19T05:14:29.249Z,0.00
2023-11-19T05:15:29.258Z,0.00
2023-11-19T05:16:29.274Z,0.00
2023-11-19T05:17:29.393Z,0.00
2023-11-19T05:18:29.205Z,0.00
2023-11-19T05:19:29.221Z,0.00
2023-11-19T05:20:29.198Z,0.00
2023-11-19T05:21:29.175Z,0.00
2023-11-19T05:22:29.181Z,0.00
2023-11-19T05:23:29.158Z,0.00
2023-11-19T05:24:29.161Z,0.00
2023-11-19T05:25:29.183Z,0.00
2023-11-19T05:26:29.117Z,0.00
2023-11-19T05:27:29.120Z,0.00
2023-11-19T05:28:29.123Z,0.00
2023-11-19T05:29:29.120Z,0.00
2023-11-19T05:30:29.102Z,0.00
2023-11-19T05:31:29.069Z,0.00
2023-11-19T05:32:29.053Z,0.00
2023-11-19T05:33:29.065Z,0.00
2023-11-19T05:34:29.117Z,0.00
2023-11-19T05:35:29.029Z,0.00
2023-11-19T05:36:29.005Z,0.00
2023-11-19T05:37:29.050Z,0.00
2023-11-19T05:38:29.019Z,0.00
2023-11-19T05:39:29.014Z,0.00
2023-11-19T05:40:29.086Z,0.00
2023-11-19T05:41:28.966Z,0.00
2023-11-19T05:42:28.947Z,0.00
2023-11-19T05:43:29.031Z,0.00
2023-11-19T05:44:28.927Z,0.00
2023-11-19T05:45:28.924Z,0.00
2023-11-19T05:46:29.078Z,0.00
2023-11-19T05:47:29.022Z,0.00
2023-11-19T05:48:28.922Z,0.00
2023-11-19T05:49:28.906Z,0.00
2023-11-19T05:50:28.864Z,0.00
2023-11-19T05:51:28.866Z,0.00
2023-11-19T05:52:29.390Z,0.00
2023-11-19T05:53:28.861Z,0.00
2023-11-19T05:54:30.377Z,0.00
2023-11-19T05:55:28.842Z,0.00
2023-11-19T05:56:28.802Z,0.00
2023-11-19T05:57:29.456Z,0.00
2023-11-19T05:58:28.800Z,0.00
2023-11-19T05:59:28.788Z,0.00
2023-11-19T06:00:28.773Z,0.00
2023-11-19T06:01:28.812Z,0.00
2023-11-19T06:02:28.748Z,0.00
2023-11-19T06:03:28.765Z,0.00
2023-11-19T06:04:28.753Z,0.00
2023-11-19T06:05:28.718Z,0.00
2023-11-19T06:06:28.712Z,0.00
2023-11-19T06:07:28.761Z,0.00
2023-11-19T06:08:28.681Z,0.00
2023-11-19T06:09:28.674Z,0.00
2023-11-19T06:10:28.692Z,0.00
2023-11-19T06:11:28.672Z,0.00
2023-11-19T06:12:28.638Z,0.00
2023-11-19T06:13:28.609Z,0.00
2023-11-19T06:14:28.612Z,0.00
2023-11-19T06:15:28.592Z,0.00
2023-11-19T06:16:28.609Z,0.00
2023-11-19T06:17:28.753Z,0.00
2023-11-19T06:18:28.594Z,0.00
2023-11-19T06:19:30.770Z,0.00
2023-11-19T06:20:28.562Z,0.00
2023-11-19T06:21:28.522Z,0.00
2023-11-19T06:22:28.521Z,0.00
2023-11-19T06:23:28.489Z,0.00
2023-11-19T06:24:28.448Z,0.00
2023-11-19T06:25:28.514Z,0.00
2023-11-19T06:26:28.432Z,0.00
2023-11-19T06:27:28.434Z,0.00
2023-11-19T06:28:28.454Z,0.00
2023-11-19T06:29:28.404Z,0.00
2023-11-19T06:30:28.406Z,0.00
2023-11-19T06:31:28.436Z,0.00
2023-11-19T06:32:28.388Z,0.00
2023-11-19T06:33:28.555Z,0.00
2023-11-19T06:34:28.406Z,0.00
2023-11-19T06:35:28.353Z,0.00
2023-11-19T06:36:28.367Z,0.00
2023-11-19T06:37:28.406Z,0.00
2023-11-19T06:38:28.324Z,0.00
2023-11-19T06:39:28.321Z,0.00
2023-11-19T06:40:28.345Z,0.00
2023-11-19T06:41:28.280Z,0.00
2023-11-19T06:42:28.269Z,0.00
2023-11-19T06:44:28.272Z,0.00
2023-11-19T06:45:28.248Z,0.00
2023-11-19T06:46:28.326Z,0.00
2023-11-19T06:47:28.258Z,0.00
2023-11-19T06:48:28.219Z,0.00
2023-11-19T06:49:28.240Z,0.00
2023-11-19T06:50:28.188Z,0.00
2023-11-19T06:51:28.200Z,0.00
2023-11-19T06:52:28.219Z,0.00
2023-11-19T06:53:28.160Z,0.00
2023-11-19T06:54:28.137Z,0.00
2023-11-19T06:55:28.188Z,0.00
2023-11-19T06:56:28.127Z,0.00
2023-11-19T06:57:28.101Z,0.00
2023-11-19T06:58:28.127Z,0.00
2023-11-19T06:59:28.102Z,0.00
2023-11-19T07:00:28.082Z,0.00
2023-11-19T07:01:28.145Z,0.00
2023-11-19T07:02:28.403Z,0.00
2023-11-19T07:03:28.155Z,0.00
2023-11-19T07:04:28.037Z,0.00
2023-11-19T07:05:28.051Z,0.00
2023-11-19T07:07:28.028Z,0.00
2023-11-19T07:08:28.028Z,0.00
2023-11-19T07:09:27.972Z,0.00
2023-11-19T07:10:27.971Z,0.00
2023-11-19T07:11:28.008Z,0.00
2023-11-19T07:12:28.003Z,0.00
2023-11-19T07:13:27.946Z,0.00
2023-11-19T07:14:27.958Z,0.00
2023-11-19T07:15:27.913Z,0.00
2023-11-19T07:16:27.936Z,5.62
2023-11-19T07:17:27.966Z,5.62
2023-11-19T07:18:27.919Z,11.25
2023-11-19T07:19:27.895Z,11.25
2023-11-19T07:20:27.910Z,16.88
2023-11-19T07:21:27.870Z,16.88
2023-11-19T07:22:27.845Z,16.88
2023-11-19T07:23:27.856Z,11.25
2023-11-19T07:24:27.825Z,11.25
2023-11-19T07:25:27.857Z,5.62
2023-11-19T07:26:28.006Z,5.62
2023-11-19T07:27:27.810Z,5.62
2023-11-19T07:28:27.780Z,5.62
2023-11-19T07:29:29.770Z,5.62
2023-11-19T07:30:27.782Z,11.25
2023-11-19T07:31:28.101Z,11.25
2023-11-19T07:32:27.769Z,11.25
2023-11-19T07:33:27.784Z,5.62
2023-11-19T07:34:27.722Z,5.62
2023-11-19T07:35:27.749Z,5.62
2023-11-19T07:36:27.720Z,5.62
2023-11-19T07:37:27.684Z,11.25
2023-11-19T07:38:27.713Z,5.62
2023-11-19T07:39:27.669Z,5.62
2023-11-19T07:40:28.470Z,5.62
2023-11-19T07:41:27.692Z,11.25
2023-11-19T07:42:27.653Z,56.25
2023-11-19T07:43:27.627Z,5.62
2023-11-19T07:44:27.678Z,0.00
2023-11-19T07:45:27.612Z,0.00
2023-11-19T07:46:27.656Z,0.00
2023-11-19T07:47:27.656Z,0.00
2023-11-19T07:48:27.585Z,0.00
2023-11-19T07:49:27.582Z,0.00
2023-11-19T07:50:27.626Z,0.00
2023-11-19T07:51:27.545Z,0.00
2023-11-19T07:52:27.545Z,0.00
2023-11-19T07:53:27.647Z,0.00
2023-11-19T07:54:27.555Z,0.00
2023-11-19T07:55:27.498Z,5.62
2023-11-19T07:56:27.585Z,5.62
2023-11-19T07:57:27.477Z,5.62
2023-11-19T07:58:27.473Z,5.62
2023-11-19T07:59:27.500Z,5.62
2023-11-19T08:00:27.455Z,5.62
2023-11-19T08:01:27.445Z,5.62
2023-11-19T08:02:27.488Z,11.25
2023-11-19T08:03:27.612Z,11.25
2023-11-19T08:04:27.550Z,11.25
2023-11-19T08:05:27.503Z,22.50
2023-11-19T08:06:27.446Z,22.50
2023-11-19T08:07:27.375Z,22.50
2023-11-19T08:08:27.397Z,28.12
2023-11-19T08:09:27.353Z,28.12
2023-11-19T08:10:27.351Z,45.00
2023-11-19T08:11:27.391Z,50.62
2023-11-19T08:12:27.328Z,28.12
2023-11-19T08:13:27.333Z,28.12
2023-11-19T08:14:27.336Z,33.75
2023-11-19T08:16:27.309Z,28.12
2023-11-19T08:17:27.327Z,28.12
2023-11-19T08:18:27.352Z,22.50
2023-11-19T08:19:29.148Z,16.88
2023-11-19T08:20:27.266Z,16.88
2023-11-19T08:21:27.231Z,11.25
2023-11-19T08:22:27.254Z,11.25
2023-11-19T08:23:27.227Z,11.25
2023-11-19T08:24:27.208Z,11.25
2023-11-19T08:25:27.184Z,5.62
2023-11-19T08:26:27.209Z,5.62
2023-11-19T08:27:27.177Z,5.62
2023-11-19T08:28:27.158Z,5.62
2023-11-19T08:29:27.157Z,5.62
2023-11-19T08:30:27.149Z,5.62
2023-11-19T08:31:27.150Z,5.62
2023-11-19T08:32:27.167Z,5.62
2023-11-19T08:33:27.093Z,5.62
2023-11-19T08:34:27.100Z,5.62
2023-11-19T08:35:27.082Z,5.62
2023-11-19T08:36:27.088Z,5.62
2023-11-19T08:37:27.613Z,5.62
2023-11-19T08:39:27.035Z,11.25
2023-11-19T08:40:27.040Z,11.25
2023-11-19T08:41:27.120Z,11.25
2023-11-19T08:42:27.008Z,16.88
2023-11-19T08:43:26.994Z,22.50
2023-11-19T08:44:27.027Z,22.50
2023-11-19T08:45:26.993Z,28.12
2023-11-19T08:46:26.980Z,28.12
2023-11-19T08:47:26.978Z,28.12
2023-11-19T08:48:27.003Z,28.12
2023-11-19T08:49:26.929Z,39.38
2023-11-19T08:50:26.968Z,33.75
2023-11-19T08:51:26.904Z,61.88
2023-11-19T08:52:26.922Z,45.00
2023-11-19T08:53:26.910Z,39.38
2023-11-19T08:54:26.888Z,28.12
2023-11-19T08:55:26.904Z,33.75
2023-11-19T08:56:26.890Z,28.12
2023-11-19T08:57:26.840Z,33.75
2023-11-19T08:58:26.844Z,39.38
2023-11-19T08:59:26.867Z,39.38
2023-11-19T09:00:26.838Z,45.00
2023-11-19T09:01:26.816Z,50.62
2023-11-19T09:02:26.849Z,50.62
2023-11-19T09:03:26.868Z,56.25
2023-11-19T09:04:26.894Z,90.00
2023-11-19T09:05:26.787Z,50.62
2023-11-19T09:06:26.751Z,50.62
2023-11-19T09:07:26.738Z,56.25
2023-11-19T09:08:26.754Z,56.25
2023-11-19T09:09:26.738Z,56.25
2023-11-19T09:10:26.717Z,50.62
2023-11-19T09:11:26.726Z,56.25
2023-11-19T09:12:26.687Z,45.00
2023-11-19T09:13:26.693Z,50.62
2023-11-19T09:14:26.913Z,61.88
2023-11-19T09:15:26.647Z,67.50
2023-11-19T09:16:26.713Z,61.88
2023-11-19T09:17:26.708Z,56.25
2023-11-19T09:18:27.181Z,50.62
2023-11-19T09:19:26.612Z,50.62
2023-11-19T09:20:26.647Z,56.25
2023-11-19T09:21:26.593Z,50.62
2023-11-19T09:22:26.603Z,45.00
2023-11-19T09:23:26.632Z,45.00
2023-11-19T09:24:26.560Z,45.00
2023-11-19T09:25:26.545Z,39.38
2023-11-19T09:26:26.540Z,39.38
2023-11-19T09:27:26.560Z,39.38
2023-11-19T09:28:26.548Z,45.00
2023-11-19T09:29:26.540Z,45.00
2023-11-19T09:30:26.506Z,50.62
2023-11-19T09:31:26.479Z,39.38
2023-11-19T09:32:26.620Z,33.75
2023-11-19T09:33:26.537Z,33.75
2023-11-19T09:34:26.458Z,39.38
2023-11-19T09:35:26.485Z,39.38
2023-11-19T09:36:26.441Z,39.38
2023-11-19T09:37:26.436Z,33.75
2023-11-19T09:38:26.419Z,28.12
2023-11-19T09:39:26.395Z,28.12
2023-11-19T09:40:26.389Z,22.50
2023-11-19T09:41:26.411Z,28.12
2023-11-19T09:42:26.386Z,28.12
2023-11-19T09:43:26.349Z,28.12
2023-11-19T09:44:28.486Z,22.50
2023-11-19T09:45:26.371Z,28.12
2023-11-19T09:46:26.346Z,28.12
2023-11-19T09:47:26.379Z,33.75
2023-11-19T09:48:26.361Z,33.75
2023-11-19T09:50:26.318Z,33.75
2023-11-19T09:51:26.272Z,33.75
2023-11-19T09:52:26.261Z,39.38
2023-11-19T09:53:26.247Z,39.38
2023-11-19T09:54:26.241Z,33.75
2023-11-19T09:55:26.219Z,33.75
2023-11-19T09:56:26.259Z,33.75
2023-11-19T09:57:26.201Z,33.75
2023-11-19T09:58:26.194Z,28.12
2023-11-19T09:59:26.216Z,28.12
2023-11-19T10:00:26.187Z,33.75
2023-11-19T10:01:29.148Z,33.75
2023-11-19T10:02:26.268Z,33.75
2023-11-19T10:03:26.244Z,33.75
2023-11-19T10:04:26.292Z,28.12
2023-11-19T10:05:26.613Z,28.12
2023-11-19T10:06:26.144Z,28.12
2023-11-19T10:07:27.387Z,22.50
2023-11-19T10:08:26.128Z,22.50
2023-11-19T10:09:26.082Z,22.50
2023-11-19T10:10:26.101Z,22.50
2023-11-19T10:11:26.178Z,28.12
2023-11-19T10:12:26.054Z,28.12
2023-11-19T10:13:26.040Z,28.12
2023-11-19T10:14:26.105Z,28.12
2023-11-19T10:15:26.353Z,28.12
2023-11-19T10:16:26.006Z,28.12
2023-11-19T10:17:26.087Z,28.12
2023-11-19T10:18:26.013Z,28.12
2023-11-19T10:19:25.973Z,28.12
2023-11-19T10:20:26.054Z,28.12
2023-11-19T10:21:25.938Z,33.75
2023-11-19T10:22:25.935Z,39.38
2023-11-19T10:23:25.977Z,39.38
2023-11-19T10:25:25.972Z,50.62
2023-11-19T10:26:25.940Z,50.62
2023-11-19T10:27:25.931Z,50.62
2023-11-19T10:28:25.886Z,50.62
2023-11-19T10:29:25.878Z,45.00
2023-11-19T10:30:25.852Z,39.38
2023-11-19T10:31:25.863Z,39.38
2023-11-19T10:32:27.540Z,39.38
2023-11-19T10:33:25.869Z,45.00
2023-11-19T10:34:25.889Z,45.00
2023-11-19T10:35:25.873Z,39.38
2023-11-19T10:36:25.783Z,39.38
2023-11-19T10:37:25.789Z,39.38
2023-11-19T10:38:25.839Z,67.50
2023-11-19T10:39:25.772Z,39.38
2023-11-19T10:40:25.754Z,39.38
2023-11-19T10:41:25.753Z,39.38
2023-11-19T10:42:25.740Z,45.00
2023-11-19T10:43:25.751Z,39.38
2023-11-19T10:44:25.731Z,33.75
2023-11-19T10:45:25.781Z,28.12
2023-11-19T10:46:25.698Z,28.12
2023-11-19T10:48:25.729Z,28.12
2023-11-19T10:49:25.642Z,22.50
2023-11-19T10:50:25.659Z,28.12
2023-11-19T10:51:25.641Z,33.75
2023-11-19T10:52:25.639Z,33.75
2023-11-19T10:53:25.698Z,39.38
2023-11-19T10:54:25.587Z,39.38
2023-11-19T10:55:25.591Z,45.00
2023-11-19T10:56:25.606Z,45.00
2023-11-19T10:57:25.622Z,45.00
2023-11-19T10:58:25.561Z,45.00
2023-11-19T10:59:28.918Z,45.00
2023-11-19T11:00:25.529Z,45.00
2023-11-19T11:01:25.567Z,45.00
2023-11-19T11:02:25.610Z,39.38
2023-11-19T11:03:25.563Z,33.75
2023-11-19T11:04:25.550Z,28.12
2023-11-19T11:05:26.539Z,22.50
2023-11-19T11:06:25.498Z,22.50
2023-11-19T11:07:32.220Z,22.50
2023-11-19T11:08:25.441Z,22.50
2023-11-19T11:09:25.531Z,22.50
2023-11-19T11:10:25.469Z,22.50
2023-11-19T11:11:27.404Z,22.50
2023-11-19T11:12:25.425Z,22.50
2023-11-19T11:13:25.392Z,22.50
2023-11-19T11:14:25.380Z,22.50
2023-11-19T11:15:25.415Z,22.50
2023-11-19T11:16:25.449Z,22.50
2023-11-19T11:17:27.942Z,22.50
2023-11-19T11:18:25.345Z,22.50
2023-11-19T11:19:25.352Z,22.50
2023-11-19T11:20:25.332Z,16.88
2023-11-19T11:21:25.381Z,11.25
2023-11-19T11:23:25.287Z,11.25
2023-11-19T11:24:25.312Z,11.25
2023-11-19T11:25:25.263Z,16.88
2023-11-19T11:26:25.270Z,16.88
2023-11-19T11:27:25.260Z,16.88
2023-11-19T11:28:25.234Z,16.88
2023-11-19T11:29:27.505Z,22.50
2023-11-19T11:30:25.242Z,16.88
2023-11-19T11:31:25.206Z,16.88
2023-11-19T11:32:25.234Z,11.25
2023-11-19T11:33:25.344Z,11.25
2023-11-19T11:34:25.186Z,11.25
2023-11-19T11:35:25.157Z,11.25
2023-11-19T11:36:25.189Z,11.25
2023-11-19T11:37:25.138Z,16.88
2023-11-19T11:38:25.140Z,16.88
2023-11-19T11:39:25.174Z,16.88
2023-11-19T11:40:25.141Z,16.88
2023-11-19T11:41:27.567Z,16.88
2023-11-19T11:42:25.091Z,22.50
2023-11-19T11:43:25.193Z,22.50
2023-11-19T11:44:25.055Z,22.50
2023-11-19T11:45:37.005Z,22.50
2023-11-19T11:46:25.089Z,16.88
2023-11-19T11:47:25.075Z,16.88
2023-11-19T11:48:25.054Z,16.88
2023-11-19T11:49:25.006Z,16.88
2023-11-19T11:50:24.997Z,16.88
2023-11-19T11:51:25.058Z,16.88
2023-11-19T11:52:24.990Z,16.88
2023-11-19T11:53:24.983Z,11.25
2023-11-19T11:54:24.973Z,11.25
2023-11-19T11:55:24.953Z,11.25
2023-11-19T11:56:24.926Z,11.25
2023-11-19T11:57:24.967Z,16.88
2023-11-19T11:58:24.909Z,16.88
2023-11-19T11:59:24.907Z,16.88
2023-11-19T12:00:24.967Z,16.88
2023-11-19T12:01:24.902Z,11.25
2023-11-19T12:02:24.910Z,11.25
2023-11-19T12:03:24.882Z,11.25
2023-11-19T12:04:24.928Z,11.25
2023-11-19T12:05:24.866Z,11.25
2023-11-19T12:06:24.869Z,11.25
2023-11-19T12:07:24.829Z,11.25
2023-11-19T12:08:26.458Z,11.25
2023-11-19T12:09:24.820Z,11.25
2023-11-19T12:10:26.184Z,11.25
2023-11-19T12:11:24.797Z,11.25
2023-11-19T12:12:24.886Z,16.88
2023-11-19T12:13:24.761Z,16.88
2023-11-19T12:14:24.737Z,16.88
2023-11-19T12:15:24.774Z,16.88
2023-11-19T12:16:24.760Z,16.88
2023-11-19T12:17:24.710Z,16.88
2023-11-19T12:18:24.752Z,28.12
2023-11-19T12:19:24.688Z,16.88
2023-11-19T12:21:24.668Z,11.25
2023-11-19T12:22:24.659Z,11.25
2023-11-19T12:23:24.660Z,11.25
2023-11-19T12:24:24.635Z,11.25
2023-11-19T12:25:24.819Z,11.25
2023-11-19T12:26:24.611Z,11.25
2023-11-19T12:27:24.603Z,11.25
2023-11-19T12:28:24.592Z,16.88
2023-11-19T12:29:24.608Z,16.88
2023-11-19T12:30:24.612Z,22.50
2023-11-19T12:31:24.632Z,28.12
2023-11-19T12:32:24.646Z,16.88
2023-11-19T12:33:24.536Z,16.88
2023-11-19T12:34:25.727Z,16.88
2023-11-19T12:35:24.599Z,16.88
2023-11-19T12:36:24.513Z,22.50
2023-11-19T12:37:24.497Z,22.50
2023-11-19T12:38:24.496Z,22.50
2023-11-19T12:39:24.512Z,28.12
2023-11-19T12:40:24.597Z,61.88
2023-11-19T12:41:24.454Z,61.88
2023-11-19T12:42:24.442Z,61.88
2023-11-19T12:43:24.452Z,50.62
2023-11-19T12:44:24.512Z,45.00
2023-11-19T12:45:24.434Z,33.75
2023-11-19T12:46:24.914Z,33.75
2023-11-19T12:47:24.402Z,33.75
2023-11-19T12:48:24.391Z,33.75
2023-11-19T12:49:24.365Z,33.75
2023-11-19T12:50:24.385Z,33.75
2023-11-19T12:51:24.343Z,33.75
2023-11-19T12:52:24.343Z,33.75
2023-11-19T12:53:24.347Z,33.75
2023-11-19T12:54:24.309Z,28.12
2023-11-19T12:56:24.280Z,22.50
2023-11-19T12:57:24.299Z,22.50
2023-11-19T12:58:24.280Z,22.50
2023-11-19T12:59:24.256Z,22.50
2023-11-19T13:00:24.269Z,28.12
2023-11-19T13:01:24.322Z,61.88
2023-11-19T13:02:24.269Z,61.88
2023-11-19T13:03:24.217Z,67.50
2023-11-19T13:04:24.203Z,67.50
2023-11-19T13:05:24.199Z,39.38
2023-11-19T13:06:24.180Z,33.75
2023-11-19T13:07:24.218Z,33.75
2023-11-19T13:08:24.160Z,39.38
2023-11-19T13:09:24.161Z,33.75
2023-11-19T13:10:24.153Z,33.75
2023-11-19T13:11:24.157Z,33.75
2023-11-19T13:12:24.138Z,39.38
2023-11-19T13:13:24.115Z,39.38
2023-11-19T13:14:24.101Z,33.75
2023-11-19T13:15:24.113Z,33.75
2023-11-19T13:16:24.214Z,28.12
2023-11-19T13:17:24.081Z,22.50
2023-11-19T13:18:24.062Z,22.50
2023-11-19T13:19:24.113Z,22.50